createdAt,value
2018-09-06T00:00:15.257Z,0
2018-09-06T00:01:17.360Z,0
2018-09-06T00:02:19.121Z,0
2018-09-06T00:03:21.317Z,0
2018-09-06T00:04:23.339Z,0
2018-09-06T00:05:25.460Z,0
2018-09-06T00:06:27.397Z,0
2018-09-06T00:07:29.526Z,0
2018-09-06T00:08:31.646Z,0
2018-09-06T00:09:33.585Z,0
2018-09-06T00:10:35.663Z,0
2018-09-06T00:11:37.796Z,0
2018-09-06T00:12:39.846Z,0
2018-09-06T00:13:42.013Z,0
2018-09-06T00:14:43.817Z,0
2018-09-06T00:15:46.024Z,0
2018-09-06T00:16:48.140Z,0
2018-09-06T00:17:50.220Z,0
2018-09-06T00:18:52.311Z,0
2018-09-06T00:19:54.113Z,0
2018-09-06T00:20:55.898Z,0
2018-09-06T00:21:58.012Z,0
2018-09-06T00:22:59.970Z,0
2018-09-06T00:24:01.973Z,0
2018-09-06T00:25:04.168Z,0
2018-09-06T00:26:06.166Z,0
2018-09-06T00:27:08.261Z,0
2018-09-06T00:28:10.262Z,0
2018-09-06T00:29:12.032Z,0
2018-09-06T00:30:13.753Z,0
2018-09-06T00:31:15.778Z,0
2018-09-06T00:32:17.621Z,0
2018-09-06T00:33:19.732Z,0
2018-09-06T00:34:21.546Z,0
2018-09-06T00:35:23.565Z,0
2018-09-06T00:36:25.344Z,0
2018-09-06T00:37:27.472Z,0
2018-09-06T00:38:29.580Z,0
2018-09-06T00:39:31.303Z,0
2018-09-06T00:40:33.554Z,0
2018-09-06T00:41:35.654Z,0
2018-09-06T00:42:37.417Z,0
2018-09-06T00:43:39.569Z,0
2018-09-06T00:44:41.687Z,0
2018-09-06T00:45:43.414Z,0
2018-09-06T00:46:45.487Z,0
2018-09-06T00:47:47.497Z,0
2018-09-06T00:48:49.463Z,0
2018-09-06T00:49:51.488Z,0
2018-09-06T00:50:53.659Z,0
2018-09-06T00:51:55.695Z,0
2018-09-06T00:52:57.850Z,0
2018-09-06T00:53:59.846Z,0
2018-09-06T00:55:01.995Z,0
2018-09-06T00:56:04.148Z,0
2018-09-06T00:57:06.240Z,0
2018-09-06T00:58:08.343Z,0
2018-09-06T00:59:10.368Z,0
2018-09-06T01:00:12.471Z,0
2018-09-06T01:01:14.596Z,0
2018-09-06T01:02:16.665Z,0
2018-09-06T01:03:18.503Z,0
2018-09-06T01:04:20.630Z,0
2018-09-06T01:05:22.700Z,0
2018-09-06T01:06:24.969Z,0
2018-09-06T01:07:26.919Z,0
2018-09-06T01:08:28.880Z,0
2018-09-06T01:09:30.913Z,0
2018-09-06T01:10:32.986Z,0
2018-09-06T01:11:34.965Z,0
2018-09-06T01:12:37.089Z,0
2018-09-06T01:13:39.009Z,0
2018-09-06T01:14:40.773Z,0
2018-09-06T01:15:42.992Z,0
2018-09-06T01:16:44.900Z,0
2018-09-06T01:17:46.905Z,0
2018-09-06T01:18:48.730Z,0
2018-09-06T01:19:50.755Z,0
2018-09-06T01:20:52.831Z,0
2018-09-06T01:21:54.968Z,0
2018-09-06T01:22:57.019Z,0
2018-09-06T01:23:59.152Z,0
2018-09-06T01:25:01.645Z,0
2018-09-06T01:26:03.792Z,0
2018-09-06T01:27:05.868Z,0
2018-09-06T01:28:07.796Z,0
2018-09-06T01:29:09.967Z,0
2018-09-06T01:30:12.044Z,0
2018-09-06T01:31:14.026Z,0
2018-09-06T01:32:16.173Z,0
2018-09-06T01:33:18.282Z,0
2018-09-06T01:34:20.354Z,0
2018-09-06T01:35:22.475Z,0
2018-09-06T01:36:24.506Z,0
2018-09-06T01:37:26.279Z,0
2018-09-06T01:38:28.556Z,0
2018-09-06T01:39:30.558Z,0
2018-09-06T01:40:32.450Z,0
2018-09-06T01:41:34.548Z,0
2018-09-06T01:42:36.620Z,0
2018-09-06T01:43:38.830Z,0
2018-09-06T01:44:40.927Z,0
2018-09-06T01:45:42.954Z,0
2018-09-06T01:46:45.125Z,0
2018-09-06T01:47:46.932Z,0
2018-09-06T01:48:49.009Z,0
2018-09-06T01:49:51.233Z,0
2018-09-06T01:50:53.040Z,0
2018-09-06T01:51:54.969Z,0
2018-09-06T01:52:57.114Z,0
2018-09-06T01:53:58.895Z,0
2018-09-06T01:55:01.101Z,0
2018-09-06T01:56:03.317Z,0
2018-09-06T01:57:05.403Z,0
2018-09-06T01:58:07.558Z,0
2018-09-06T01:59:09.817Z,0
2018-09-06T02:00:11.932Z,0
2018-09-06T02:01:14.043Z,0
2018-09-06T02:02:16.160Z,0
2018-09-06T02:03:18.295Z,0
2018-09-06T02:04:20.427Z,0
2018-09-06T02:05:22.458Z,0
2018-09-06T02:06:24.442Z,0
2018-09-06T02:07:26.475Z,0
2018-09-06T02:08:28.282Z,0
2018-09-06T02:09:30.506Z,0
2018-09-06T02:10:32.645Z,0
2018-09-06T02:11:34.837Z,0
2018-09-06T02:12:36.539Z,0
2018-09-06T02:13:38.668Z,0
2018-09-06T02:14:40.424Z,0
2018-09-06T02:15:42.655Z,0
2018-09-06T02:16:44.736Z,0
2018-09-06T02:17:46.519Z,0
2018-09-06T02:18:48.528Z,0
2018-09-06T02:19:50.520Z,0
2018-09-06T02:20:52.741Z,0
2018-09-06T02:21:54.660Z,0
2018-09-06T02:22:56.754Z,0
2018-09-06T02:23:58.835Z,0
2018-09-06T02:25:00.839Z,0
2018-09-06T02:26:02.956Z,0
2018-09-06T02:27:04.996Z,0
2018-09-06T02:28:07.050Z,0
2018-09-06T02:29:08.965Z,0
2018-09-06T02:30:11.017Z,0
2018-09-06T02:31:13.093Z,0
2018-09-06T02:32:15.253Z,0
2018-09-06T02:33:17.275Z,0
2018-09-06T02:34:19.298Z,0
2018-09-06T02:35:21.522Z,0
2018-09-06T02:36:23.679Z,0
2018-09-06T02:37:25.580Z,0
2018-09-06T02:38:27.607Z,0
2018-09-06T02:39:29.730Z,0
2018-09-06T02:40:31.816Z,0
2018-09-06T02:41:33.889Z,0
2018-09-06T02:42:35.617Z,0
2018-09-06T02:43:37.741Z,0
2018-09-06T02:44:39.603Z,0
2018-09-06T02:45:41.691Z,0
2018-09-06T02:46:43.488Z,0
2018-09-06T02:47:45.602Z,0
2018-09-06T02:48:47.652Z,0
2018-09-06T02:49:49.442Z,0
2018-09-06T02:50:51.493Z,0
2018-09-06T02:51:53.524Z,0
2018-09-06T02:52:55.563Z,0
2018-09-06T02:53:57.623Z,0
2018-09-06T02:54:59.615Z,0
2018-09-06T02:56:01.558Z,0
2018-09-06T02:57:03.508Z,0
2018-09-06T02:58:05.443Z,0
2018-09-06T02:59:07.511Z,0
2018-09-06T03:00:09.506Z,0
2018-09-06T03:01:11.625Z,0
2018-09-06T03:02:13.687Z,0
2018-09-06T03:03:15.642Z,0
2018-09-06T03:04:17.656Z,0
2018-09-06T03:05:19.621Z,0
2018-09-06T03:06:21.423Z,0
2018-09-06T03:07:23.267Z,0
2018-09-06T03:08:25.337Z,0
2018-09-06T03:09:27.465Z,0
2018-09-06T03:10:29.537Z,0
2018-09-06T03:11:31.285Z,0
2018-09-06T03:12:33.339Z,0
2018-09-06T03:13:35.375Z,0
2018-09-06T03:14:37.490Z,0
2018-09-06T03:15:39.450Z,0
2018-09-06T03:16:41.558Z,0
2018-09-06T03:17:43.358Z,0
2018-09-06T03:18:45.477Z,0
2018-09-06T03:19:47.650Z,0
2018-09-06T03:20:49.702Z,0
2018-09-06T03:21:51.829Z,0
2018-09-06T03:22:53.887Z,0
2018-09-06T03:23:55.846Z,0
2018-09-06T03:24:57.698Z,0
2018-09-06T03:25:59.843Z,0
2018-09-06T03:27:01.933Z,0
2018-09-06T03:28:04.027Z,0
2018-09-06T03:29:06.167Z,0
2018-09-06T03:30:08.003Z,0
2018-09-06T03:31:09.893Z,0
2018-09-06T03:32:11.876Z,0
2018-09-06T03:33:13.987Z,0
2018-09-06T03:34:15.722Z,0
2018-09-06T03:35:17.741Z,0
2018-09-06T03:36:19.739Z,0
2018-09-06T03:37:21.837Z,0
2018-09-06T03:38:23.804Z,0
2018-09-06T03:39:25.779Z,0
2018-09-06T03:40:27.612Z,0
2018-09-06T03:41:29.654Z,0
2018-09-06T03:42:31.722Z,0
2018-09-06T03:43:33.799Z,0
2018-09-06T03:44:35.840Z,0
2018-09-06T03:45:37.859Z,0
2018-09-06T03:46:39.912Z,0
2018-09-06T03:47:41.994Z,0
2018-09-06T03:48:43.999Z,0
2018-09-06T03:49:45.784Z,0
2018-09-06T03:50:48.007Z,0
2018-09-06T03:51:49.985Z,0
2018-09-06T03:52:52.059Z,0
2018-09-06T03:53:54.160Z,0
2018-09-06T03:54:56.174Z,0
2018-09-06T03:55:58.003Z,0
2018-09-06T03:57:00.067Z,0
2018-09-06T03:58:02.110Z,0
2018-09-06T03:59:04.226Z,0
2018-09-06T04:00:06.343Z,0
2018-09-06T04:01:08.437Z,0
2018-09-06T04:02:10.439Z,0
2018-09-06T04:03:12.287Z,0
2018-09-06T04:04:14.257Z,0
2018-09-06T04:05:16.107Z,0
2018-09-06T04:06:18.038Z,0
2018-09-06T04:07:19.893Z,0
2018-09-06T04:08:22.063Z,0
2018-09-06T04:09:24.207Z,0
2018-09-06T04:10:26.066Z,0
2018-09-06T04:11:27.795Z,0
2018-09-06T04:12:29.559Z,0
2018-09-06T04:13:31.539Z,0
2018-09-06T04:14:33.628Z,0
2018-09-06T04:15:35.408Z,0
2018-09-06T04:16:37.587Z,0
2018-09-06T04:17:39.495Z,0
2018-09-06T04:18:41.391Z,0
2018-09-06T04:19:43.545Z,0
2018-09-06T04:20:45.337Z,0
2018-09-06T04:21:47.191Z,0
2018-09-06T04:22:49.235Z,0
2018-09-06T04:23:51.272Z,0
2018-09-06T04:24:53.413Z,0
2018-09-06T04:25:55.535Z,0
2018-09-06T04:26:57.305Z,0
2018-09-06T04:27:59.434Z,0
2018-09-06T04:29:01.638Z,0
2018-09-06T04:30:03.710Z,0
2018-09-06T04:31:05.752Z,0
2018-09-06T04:32:07.711Z,0
2018-09-06T04:33:09.799Z,0
2018-09-06T04:34:11.794Z,0
2018-09-06T04:35:13.898Z,0
2018-09-06T04:36:16.002Z,0
2018-09-06T04:37:17.874Z,0
2018-09-06T04:38:19.834Z,0
2018-09-06T04:39:21.853Z,0
2018-09-06T04:40:24.012Z,5
2018-09-06T04:41:25.946Z,5
2018-09-06T04:42:28.125Z,5
2018-09-06T04:43:30.251Z,5
2018-09-06T04:44:32.213Z,5
2018-09-06T04:45:34.198Z,5
2018-09-06T04:46:36.324Z,5
2018-09-06T04:47:38.506Z,10
2018-09-06T04:48:40.667Z,10
2018-09-06T04:49:42.471Z,10
2018-09-06T04:50:44.527Z,10
2018-09-06T04:51:46.473Z,10
2018-09-06T04:52:48.548Z,10
2018-09-06T04:53:50.513Z,15
2018-09-06T04:54:52.702Z,15
2018-09-06T04:55:54.627Z,15
2018-09-06T04:56:56.441Z,15
2018-09-06T04:57:58.335Z,20
2018-09-06T04:59:00.144Z,20
2018-09-06T05:00:02.130Z,20
2018-09-06T05:01:04.270Z,20
2018-09-06T05:02:06.117Z,25
2018-09-06T05:03:07.963Z,25
2018-09-06T05:04:09.897Z,25
2018-09-06T05:05:11.951Z,25
2018-09-06T05:06:14.034Z,30
2018-09-06T05:07:16.053Z,30
2018-09-06T05:08:17.953Z,30
2018-09-06T05:09:19.759Z,30
2018-09-06T05:10:21.650Z,35
2018-09-06T05:11:23.433Z,35
2018-09-06T05:12:25.401Z,35
2018-09-06T05:13:27.422Z,40
2018-09-06T05:14:29.432Z,40
2018-09-06T05:15:31.348Z,40
2018-09-06T05:16:33.319Z,40
2018-09-06T05:17:35.411Z,45
2018-09-06T05:18:37.314Z,45
2018-09-06T05:19:39.377Z,45
2018-09-06T05:20:41.403Z,45
2018-09-06T05:21:43.308Z,50
2018-09-06T05:22:45.439Z,50
2018-09-06T05:23:47.209Z,50
2018-09-06T05:24:49.113Z,50
2018-09-06T05:25:51.300Z,50
2018-09-06T05:26:53.185Z,50
2018-09-06T05:27:56.091Z,50
2018-09-06T05:28:57.864Z,55
2018-09-06T05:29:59.587Z,55
2018-09-06T05:31:01.642Z,55
2018-09-06T05:32:03.372Z,60
2018-09-06T05:33:05.167Z,60
2018-09-06T05:34:06.915Z,65
2018-09-06T05:35:08.781Z,65
2018-09-06T05:36:10.802Z,70
2018-09-06T05:37:14.101Z,70
2018-09-06T05:38:18.707Z,75
2018-09-06T05:39:20.463Z,80
2018-09-06T05:40:24.899Z,80
2018-09-06T05:41:27.399Z,85
2018-09-06T05:42:29.173Z,90
2018-09-06T05:43:31.300Z,95
2018-09-06T05:44:33.045Z,100
2018-09-06T05:45:37.492Z,105
2018-09-06T05:46:41.104Z,110
2018-09-06T05:47:44.969Z,115
2018-09-06T05:48:46.550Z,120
2018-09-06T05:49:49.780Z,125
2018-09-06T05:50:51.622Z,130
2018-09-06T05:51:53.367Z,135
2018-09-06T05:52:55.085Z,140
2018-09-06T05:53:56.946Z,145
2018-09-06T05:54:58.967Z,150
2018-09-06T05:56:00.985Z,150
2018-09-06T05:57:03.829Z,155
2018-09-06T05:58:05.682Z,155
2018-09-06T05:59:08.791Z,160
2018-09-06T06:00:12.104Z,165
2018-09-06T06:01:13.957Z,170
2018-09-06T06:02:15.892Z,170
2018-09-06T06:03:17.787Z,175
2018-09-06T06:04:19.551Z,175
2018-09-06T06:05:21.329Z,170
2018-09-06T06:06:23.262Z,165
2018-09-06T06:07:24.996Z,160
2018-09-06T06:08:26.980Z,155
2018-09-06T06:09:28.730Z,150
2018-09-06T06:10:31.064Z,145
2018-09-06T06:11:32.836Z,145
2018-09-06T06:12:34.749Z,155
2018-09-06T06:13:37.094Z,160
2018-09-06T06:14:38.822Z,175
2018-09-06T06:15:40.636Z,190
2018-09-06T06:16:42.530Z,190
2018-09-06T06:17:44.497Z,180
2018-09-06T06:18:46.196Z,160
2018-09-06T06:19:48.477Z,145
2018-09-06T06:20:50.345Z,135
2018-09-06T06:21:52.096Z,145
2018-09-06T06:22:53.872Z,160
2018-09-06T06:23:55.826Z,180
2018-09-06T06:24:57.556Z,220
2018-09-06T06:25:59.412Z,240
2018-09-06T06:27:01.173Z,260
2018-09-06T06:28:03.190Z,275
2018-09-06T06:29:05.137Z,320
2018-09-06T06:30:07.001Z,315
2018-09-06T06:31:09.001Z,325
2018-09-06T06:32:11.384Z,330
2018-09-06T06:33:13.152Z,340
2018-09-06T06:34:17.174Z,350
2018-09-06T06:35:18.969Z,355
2018-09-06T06:36:20.685Z,370
2018-09-06T06:37:22.476Z,395
2018-09-06T06:38:27.738Z,415
2018-09-06T06:39:29.364Z,410
2018-09-06T06:40:31.137Z,410
2018-09-06T06:41:32.907Z,410
2018-09-06T06:42:36.631Z,420
2018-09-06T06:43:38.663Z,405
2018-09-06T06:44:40.443Z,390
2018-09-06T06:45:42.198Z,420
2018-09-06T06:46:44.101Z,390
2018-09-06T06:47:48.652Z,380
2018-09-06T06:48:50.401Z,370
2018-09-06T06:49:52.278Z,365
2018-09-06T06:50:55.688Z,365
2018-09-06T06:51:57.565Z,370
2018-09-06T06:53:00.876Z,385
2018-09-06T06:54:03.835Z,405
2018-09-06T06:55:05.445Z,430
2018-09-06T06:56:08.852Z,475
2018-09-06T06:57:10.678Z,455
2018-09-06T06:58:13.981Z,465
2018-09-06T06:59:17.100Z,470
2018-09-06T07:00:18.886Z,480
2018-09-06T07:01:21.258Z,470
2018-09-06T07:02:23.089Z,460
2018-09-06T07:03:24.968Z,455
2018-09-06T07:04:27.875Z,445
2018-09-06T07:05:30.384Z,450
2018-09-06T07:06:32.509Z,440
2018-09-06T07:07:35.330Z,445
2018-09-06T07:08:37.249Z,445
2018-09-06T07:09:39.616Z,450
2018-09-06T07:10:41.319Z,435
2018-09-06T07:11:43.187Z,415
2018-09-06T07:12:45.053Z,405
2018-09-06T07:13:47.392Z,405
2018-09-06T07:14:49.144Z,430
2018-09-06T07:15:52.239Z,455
2018-09-06T07:16:55.194Z,440
2018-09-06T07:17:58.146Z,425
2018-09-06T07:19:01.099Z,415
2018-09-06T07:20:04.181Z,410
2018-09-06T07:21:07.268Z,430
2018-09-06T07:22:11.765Z,430
2018-09-06T07:23:14.404Z,440
2018-09-06T07:24:16.188Z,440
2018-09-06T07:25:19.566Z,405
2018-09-06T07:26:22.642Z,415
2018-09-06T07:27:25.345Z,460
2018-09-06T07:28:27.128Z,445
2018-09-06T07:29:29.642Z,475
2018-09-06T07:30:32.133Z,465
2018-09-06T07:31:34.503Z,485
2018-09-06T07:32:36.271Z,485
2018-09-06T07:33:38.583Z,485
2018-09-06T07:34:41.429Z,500
2018-09-06T07:35:43.420Z,500
2018-09-06T07:36:45.558Z,480
2018-09-06T07:37:47.412Z,485
2018-09-06T07:38:49.289Z,510
2018-09-06T07:39:51.099Z,530
2018-09-06T07:40:54.318Z,560
2018-09-06T07:41:56.476Z,590
2018-09-06T07:42:58.306Z,630
2018-09-06T07:44:00.493Z,660
2018-09-06T07:45:02.309Z,670
2018-09-06T07:46:04.477Z,685
2018-09-06T07:47:06.273Z,695
2018-09-06T07:48:08.469Z,700
2018-09-06T07:49:11.032Z,690
2018-09-06T07:50:13.128Z,720
2018-09-06T07:51:16.832Z,745
2018-09-06T07:52:18.572Z,755
2018-09-06T07:53:20.556Z,765
2018-09-06T07:54:22.345Z,775
2018-09-06T07:55:24.144Z,790
2018-09-06T07:56:26.239Z,780
2018-09-06T07:57:28.040Z,765
2018-09-06T07:58:29.926Z,750
2018-09-06T07:59:32.596Z,740
2018-09-06T08:00:35.483Z,725
2018-09-06T08:01:38.909Z,720
2018-09-06T08:02:40.718Z,715
2018-09-06T08:03:42.539Z,735
2018-09-06T08:04:44.429Z,715
2018-09-06T08:05:46.198Z,690
2018-09-06T08:06:48.132Z,670
2018-09-06T08:07:49.986Z,655
2018-09-06T08:08:52.978Z,640
2018-09-06T08:09:55.018Z,625
2018-09-06T08:10:57.072Z,625
2018-09-06T08:11:59.974Z,640
2018-09-06T08:13:02.113Z,640
2018-09-06T08:14:05.200Z,655
2018-09-06T08:15:07.061Z,670
2018-09-06T08:16:09.519Z,675
2018-09-06T08:17:11.206Z,665
2018-09-06T08:18:13.628Z,640
2018-09-06T08:19:15.450Z,615
2018-09-06T08:20:17.455Z,580
2018-09-06T08:21:19.262Z,555
2018-09-06T08:22:21.105Z,555
2018-09-06T08:23:22.830Z,540
2018-09-06T08:24:24.768Z,550
2018-09-06T08:25:26.781Z,520
2018-09-06T08:26:28.658Z,520
2018-09-06T08:27:30.525Z,515
2018-09-06T08:28:32.450Z,525
2018-09-06T08:29:34.444Z,545
2018-09-06T08:30:36.221Z,560
2018-09-06T08:31:38.090Z,605
2018-09-06T08:32:40.101Z,575
2018-09-06T08:33:41.906Z,570
2018-09-06T08:34:44.070Z,575
2018-09-06T08:35:46.309Z,580
2018-09-06T08:36:48.358Z,610
2018-09-06T08:37:50.143Z,620
2018-09-06T08:38:52.160Z,650
2018-09-06T08:39:54.047Z,785
2018-09-06T08:40:55.954Z,810
2018-09-06T08:41:58.245Z,810
2018-09-06T08:43:00.368Z,770
2018-09-06T08:44:02.487Z,755
2018-09-06T08:45:04.536Z,695
2018-09-06T08:46:06.501Z,690
2018-09-06T08:47:08.356Z,680
2018-09-06T08:48:10.276Z,675
2018-09-06T08:49:12.270Z,695
2018-09-06T08:50:14.057Z,650
2018-09-06T08:51:15.970Z,645
2018-09-06T08:52:17.896Z,660
2018-09-06T08:53:19.688Z,675
2018-09-06T08:54:21.523Z,710
2018-09-06T08:55:23.958Z,805
2018-09-06T08:56:26.037Z,705
2018-09-06T08:57:27.913Z,685
2018-09-06T08:58:29.958Z,700
2018-09-06T08:59:31.789Z,675
2018-09-06T09:00:34.125Z,695
2018-09-06T09:01:36.714Z,755
2018-09-06T09:02:38.497Z,930
2018-09-06T09:03:40.207Z,975
2018-09-06T09:04:42.345Z,870
2018-09-06T09:05:44.097Z,880
2018-09-06T09:06:45.969Z,960
2018-09-06T09:07:47.693Z,915
2018-09-06T09:08:49.642Z,850
2018-09-06T09:09:51.707Z,830
2018-09-06T09:10:53.534Z,785
2018-09-06T09:11:55.542Z,780
2018-09-06T09:12:57.632Z,775
2018-09-06T09:13:59.446Z,750
2018-09-06T09:15:01.259Z,730
2018-09-06T09:16:03.411Z,710
2018-09-06T09:17:05.298Z,675
2018-09-06T09:18:08.408Z,655
2018-09-06T09:19:10.197Z,645
2018-09-06T09:20:12.035Z,645
2018-09-06T09:21:14.187Z,640
2018-09-06T09:22:16.185Z,635
2018-09-06T09:23:17.896Z,630
2018-09-06T09:24:20.371Z,615
2018-09-06T09:25:23.289Z,590
2018-09-06T09:26:25.002Z,555
2018-09-06T09:27:26.736Z,535
2018-09-06T09:28:28.547Z,510
2018-09-06T09:29:30.395Z,485
2018-09-06T09:30:32.404Z,465
2018-09-06T09:31:34.158Z,445
2018-09-06T09:32:35.958Z,435
2018-09-06T09:33:37.891Z,440
2018-09-06T09:34:39.660Z,430
2018-09-06T09:35:41.699Z,415
2018-09-06T09:36:43.609Z,395
2018-09-06T09:37:45.436Z,375
2018-09-06T09:38:47.408Z,360
2018-09-06T09:39:50.281Z,335
2018-09-06T09:40:52.258Z,305
2018-09-06T09:41:53.983Z,290
2018-09-06T09:42:56.019Z,285
2018-09-06T09:43:58.188Z,280
2018-09-06T09:44:59.997Z,260
2018-09-06T09:48:08.579Z,230
2018-09-06T09:49:10.106Z,235
2018-09-06T09:51:12.458Z,225
2018-09-06T09:52:14.106Z,210
2018-09-06T09:53:16.744Z,190
2018-09-06T09:54:18.574Z,175
2018-09-06T09:55:21.290Z,165
2018-09-06T09:56:22.974Z,165
2018-09-06T09:57:24.787Z,155
2018-09-06T09:58:26.514Z,145
2018-09-06T09:59:28.238Z,140
2018-09-06T10:00:30.772Z,125
2018-09-06T10:01:34.018Z,110
2018-09-06T10:02:36.401Z,100
2018-09-06T10:03:38.170Z,95
2018-09-06T10:04:39.894Z,95
2018-09-06T10:05:41.622Z,95
2018-09-06T10:06:43.519Z,95
2018-09-06T10:07:45.962Z,100
2018-09-06T10:08:48.139Z,105
2018-09-06T10:09:50.900Z,110
2018-09-06T10:10:52.727Z,125
2018-09-06T10:11:54.608Z,145
2018-09-06T10:12:56.966Z,160
2018-09-06T10:13:59.867Z,185
2018-09-06T10:15:01.613Z,205
2018-09-06T10:16:04.035Z,220
2018-09-06T10:17:05.964Z,235
2018-09-06T10:18:08.002Z,245
2018-09-06T10:19:09.703Z,250
2018-09-06T10:20:11.503Z,255
2018-09-06T10:21:13.298Z,260
2018-09-06T10:22:15.186Z,270
2018-09-06T10:23:18.172Z,280
2018-09-06T10:24:20.641Z,290
2018-09-06T10:25:22.353Z,295
2018-09-06T10:26:25.818Z,300
2018-09-06T10:27:27.496Z,295
2018-09-06T10:28:29.837Z,285
2018-09-06T10:29:31.620Z,275
2018-09-06T10:30:33.624Z,270
2018-09-06T10:31:36.245Z,255
2018-09-06T10:32:39.116Z,235
2018-09-06T10:33:41.676Z,215
2018-09-06T10:34:43.486Z,185
2018-09-06T10:35:46.019Z,175
2018-09-06T10:36:48.174Z,165
2018-09-06T10:37:50.449Z,170
2018-09-06T10:38:53.126Z,190
2018-09-06T10:39:55.347Z,205
2018-09-06T10:40:57.092Z,220
2018-09-06T10:41:58.938Z,230
2018-09-06T10:43:01.159Z,240
2018-09-06T10:44:03.611Z,245
2018-09-06T10:45:05.828Z,250
2018-09-06T10:46:08.422Z,260
2018-09-06T10:47:10.179Z,260
2018-09-06T10:48:11.965Z,255
2018-09-06T10:49:13.734Z,250
2018-09-06T10:50:15.668Z,245
2018-09-06T10:51:18.692Z,240
2018-09-06T10:52:20.452Z,240
2018-09-06T10:53:22.177Z,235
2018-09-06T10:54:24.070Z,235
2018-09-06T10:55:26.703Z,235
2018-09-06T10:56:29.214Z,240
2018-09-06T10:57:30.956Z,235
2018-09-06T10:58:33.839Z,235
2018-09-06T10:59:36.115Z,230
2018-09-06T11:00:37.931Z,225
2018-09-06T11:01:39.708Z,215
2018-09-06T11:02:42.501Z,200
2018-09-06T11:03:46.194Z,190
2018-09-06T11:04:47.990Z,185
2018-09-06T11:05:49.902Z,180
2018-09-06T11:06:52.599Z,180
2018-09-06T11:07:54.465Z,180
2018-09-06T11:08:56.443Z,185
2018-09-06T11:09:58.622Z,195
2018-09-06T11:11:00.510Z,200
2018-09-06T11:12:02.527Z,205
2018-09-06T11:13:04.594Z,215
2018-09-06T11:14:06.985Z,220
2018-09-06T11:15:09.231Z,215
2018-09-06T11:16:11.008Z,205
2018-09-06T11:17:14.343Z,190
2018-09-06T11:18:16.520Z,175
2018-09-06T11:19:37.799Z,165
2018-09-06T11:20:44.786Z,155
2018-09-06T11:23:01.290Z,150
